sensor_id;sensor_type;location;lat;lon;timestamp;pressure;altitude;pressure_sealevel;temperature;humidity
57859;BME280;49153;45.568;11.894;2023-01-27T00:01:06;101144.72;;;3.92;64.16
57859;BME280;49153;45.568;11.894;2023-01-27T00:03:32;101147.25;;;3.95;63.38
57859;BME280;49153;45.568;11.894;2023-01-27T00:05:57;101144.72;;;3.92;63.13
57859;BME280;49153;45.568;11.894;2023-01-27T00:08:26;101143.66;;;3.97;63.80
57859;BME280;49153;45.568;11.894;2023-01-27T00:10:57;101132.34;;;3.97;63.39
57859;BME280;49153;45.568;11.894;2023-01-27T00:13:42;101140.81;;;4.03;62.98
57859;BME280;49153;45.568;11.894;2023-01-27T00:16:08;101141.84;;;3.99;63.14
57859;BME280;49153;45.568;11.894;2023-01-27T00:18:33;101147.19;;;3.96;62.60
57859;BME280;49153;45.568;11.894;2023-01-27T00:20:58;101134.41;;;3.89;62.42
57859;BME280;49153;45.568;11.894;2023-01-27T00:23:43;101150.72;;;3.95;62.35
57859;BME280;49153;45.568;11.894;2023-01-27T00:26:26;101143.91;;;3.91;62.69
57859;BME280;49153;45.568;11.894;2023-01-27T00:28:52;101143.81;;;3.93;62.81
57859;BME280;49153;45.568;11.894;2023-01-27T00:31:18;101148.28;;;3.91;62.52
57859;BME280;49153;45.568;11.894;2023-01-27T00:34:03;101141.34;;;3.90;62.93
57859;BME280;49153;45.568;11.894;2023-01-27T00:36:36;101141.22;;;3.93;63.25
57859;BME280;49153;45.568;11.894;2023-01-27T00:39:03;101148.16;;;3.94;63.58
57859;BME280;49153;45.568;11.894;2023-01-27T00:41:29;101146.53;;;3.91;63.71
57859;BME280;49153;45.568;11.894;2023-01-27T00:43:54;101149.94;;;3.92;63.06
57859;BME280;49153;45.568;11.894;2023-01-27T00:46:22;101152.50;;;3.93;63.83
57859;BME280;49153;45.568;11.894;2023-01-27T00:48:48;101155.81;;;3.98;63.95
57859;BME280;49153;45.568;11.894;2023-01-27T00:51:14;101145.31;;;4.00;63.72
57859;BME280;49153;45.568;11.894;2023-01-27T00:53:40;101152.09;;;4.04;64.38
57859;BME280;49153;45.568;11.894;2023-01-27T00:56:06;101158.19;;;4.04;64.64
57859;BME280;49153;45.568;11.894;2023-01-27T00:58:32;101159.94;;;4.04;64.89
57859;BME280;49153;45.568;11.894;2023-01-27T01:01:00;101159.03;;;4.05;64.40
57859;BME280;49153;45.568;11.894;2023-01-27T01:03:28;101154.63;;;4.07;64.77
57859;BME280;49153;45.568;11.894;2023-01-27T01:06:00;101155.44;;;4.07;64.53
57859;BME280;49153;45.568;11.894;2023-01-27T01:08:26;101158.19;;;4.04;64.30
57859;BME280;49153;45.568;11.894;2023-01-27T01:10:52;101157.47;;;4.01;64.50
57859;BME280;49153;45.568;11.894;2023-01-27T01:13:17;101153.00;;;4.03;64.29
57859;BME280;49153;45.568;11.894;2023-01-27T01:15:43;101159.09;;;4.03;64.56
57859;BME280;49153;45.568;11.894;2023-01-27T01:18:09;101158.22;;;4.03;64.96
57859;BME280;49153;45.568;11.894;2023-01-27T01:20:37;101160.75;;;4.06;65.53
57859;BME280;49153;45.568;11.894;2023-01-27T01:23:04;101154.50;;;4.10;65.18
57859;BME280;49153;45.568;11.894;2023-01-27T01:25:30;101157.91;;;4.12;65.80
57859;BME280;49153;45.568;11.894;2023-01-27T01:27:55;101156.16;;;4.12;65.78
57859;BME280;49153;45.568;11.894;2023-01-27T01:30:20;101160.34;;;4.16;65.65
57859;BME280;49153;45.568;11.894;2023-01-27T01:32:46;101138.28;;;4.02;65.88
57859;BME280;49153;45.568;11.894;2023-01-27T01:35:12;101156.16;;;4.12;65.28
57859;BME280;49153;45.568;11.894;2023-01-27T01:37:38;101153.47;;;4.14;65.36
57859;BME280;49153;45.568;11.894;2023-01-27T01:40:03;101147.34;;;4.15;65.85
57859;BME280;49153;45.568;11.894;2023-01-27T01:42:55;101149.03;;;4.16;64.77
57859;BME280;49153;45.568;11.894;2023-01-27T01:50:29;101155.41;;;4.09;65.19
57859;BME280;49153;45.568;11.894;2023-01-27T01:52:56;101152.91;;;4.06;65.50
57859;BME280;49153;45.568;11.894;2023-01-27T01:55:23;101133.28;;;3.96;65.58
57859;BME280;49153;45.568;11.894;2023-01-27T01:57:49;101142.47;;;4.06;65.81
57859;BME280;49153;45.568;11.894;2023-01-27T02:00:15;101145.81;;;4.09;66.14
57859;BME280;49153;45.568;11.894;2023-01-27T02:02:42;101150.19;;;4.09;66.11
57859;BME280;49153;45.568;11.894;2023-01-27T02:05:17;101136.41;;;4.05;66.27
57859;BME280;49153;45.568;11.894;2023-01-27T02:08:16;101148.59;;;4.05;65.85
57859;BME280;49153;45.568;11.894;2023-01-27T02:10:44;101147.78;;;4.03;66.59
57859;BME280;49153;45.568;11.894;2023-01-27T02:13:10;101139.28;;;3.98;65.88
57859;BME280;49153;45.568;11.894;2023-01-27T02:15:36;101135.69;;;4.02;66.58
57859;BME280;49153;45.568;11.894;2023-01-27T02:18:01;101133.22;;;3.97;65.90
57859;BME280;49153;45.568;11.894;2023-01-27T02:20:45;101144.28;;;4.04;65.71
57859;BME280;49153;45.568;11.894;2023-01-27T02:25:52;101144.47;;;3.99;66.58
57859;BME280;49153;45.568;11.894;2023-01-27T02:28:19;101144.41;;;4.01;66.85
57859;BME280;49153;45.568;11.894;2023-01-27T02:30:44;101146.78;;;4.07;66.46
57859;BME280;49153;45.568;11.894;2023-01-27T02:33:14;101145.81;;;4.09;66.03
57859;BME280;49153;45.568;11.894;2023-01-27T02:36:01;101140.78;;;4.05;65.75
57859;BME280;49153;45.568;11.894;2023-01-27T02:38:39;101151.22;;;4.05;65.99
57859;BME280;49153;45.568;11.894;2023-01-27T02:41:09;101139.97;;;4.03;66.70
57859;BME280;49153;45.568;11.894;2023-01-27T02:43:36;101140.78;;;4.05;67.06
57859;BME280;49153;45.568;11.894;2023-01-27T02:46:01;101133.78;;;4.05;66.70
57859;BME280;49153;45.568;11.894;2023-01-27T02:48:26;101131.81;;;4.12;66.68
57859;BME280;49153;45.568;11.894;2023-01-27T02:50:52;101124.88;;;4.11;67.16
57859;BME280;49153;45.568;11.894;2023-01-27T02:53:17;101126.50;;;4.13;66.97
57859;BME280;49153;45.568;11.894;2023-01-27T02:55:43;101126.41;;;4.16;66.93
57859;BME280;49153;45.568;11.894;2023-01-27T02:58:08;101131.81;;;4.12;67.19
57859;BME280;49153;45.568;11.894;2023-01-27T03:00:34;101129.13;;;4.13;66.65
57859;BME280;49153;45.568;11.894;2023-01-27T03:02:59;101131.63;;;4.16;67.46
57859;BME280;49153;45.568;11.894;2023-01-27T03:05:24;101117.72;;;4.16;66.97
57859;BME280;49153;45.568;11.894;2023-01-27T03:07:50;101129.59;;;4.23;66.55
57859;BME280;49153;45.568;11.894;2023-01-27T03:10:15;101129.59;;;4.23;67.01
57859;BME280;49153;45.568;11.894;2023-01-27T03:12:43;101134.97;;;4.20;67.24
57859;BME280;49153;45.568;11.894;2023-01-27T03:15:09;101129.75;;;4.20;66.83
57859;BME280;49153;45.568;11.894;2023-01-27T03:17:53;101125.50;;;4.17;67.23
57859;BME280;49153;45.568;11.894;2023-01-27T03:20:43;101130.59;;;4.20;67.08
57859;BME280;49153;45.568;11.894;2023-01-27T03:23:09;101130.78;;;4.16;66.80
57859;BME280;49153;45.568;11.894;2023-01-27T03:25:35;101129.13;;;4.13;67.17
57859;BME280;49153;45.568;11.894;2023-01-27T03:28:04;101123.72;;;4.18;66.93
57859;BME280;49153;45.568;11.894;2023-01-27T03:30:29;101121.22;;;4.15;67.29
57859;BME280;49153;45.568;11.894;2023-01-27T03:32:55;101122.94;;;4.16;67.47
57859;BME280;49153;45.568;11.894;2023-01-27T03:35:20;101126.69;;;4.09;67.09
57859;BME280;49153;45.568;11.894;2023-01-27T03:37:48;101124.31;;;4.03;67.44
57859;BME280;49153;45.568;11.894;2023-01-27T03:40:32;101129.66;;;4.00;67.71
57859;BME280;49153;45.568;11.894;2023-01-27T03:43:16;101117.84;;;3.90;67.43
57859;BME280;49153;45.568;11.894;2023-01-27T03:46:00;101134.28;;;3.92;67.33
57859;BME280;49153;45.568;11.894;2023-01-27T03:48:50;101124.94;;;3.86;67.45
57859;BME280;49153;45.568;11.894;2023-01-27T03:51:17;101134.66;;;3.82;67.50
57859;BME280;49153;45.568;11.894;2023-01-27T03:53:43;101131.34;;;3.77;67.88
57859;BME280;49153;45.568;11.894;2023-01-27T03:56:09;101139.13;;;3.79;68.70
57859;BME280;49153;45.568;11.894;2023-01-27T03:58:36;101139.31;;;3.74;68.55
57859;BME280;49153;45.568;11.894;2023-01-27T04:01:10;101132.47;;;3.70;68.93
57859;BME280;49153;45.568;11.894;2023-01-27T04:03:36;101131.69;;;3.68;68.92
57859;BME280;49153;45.568;11.894;2023-01-27T04:06:23;101125.13;;;3.58;69.47
57859;BME280;49153;45.568;11.894;2023-01-27T04:09:08;101141.22;;;3.69;69.15
57859;BME280;49153;45.568;11.894;2023-01-27T04:11:34;101136.06;;;3.68;69.65
57859;BME280;49153;45.568;11.894;2023-01-27T04:14:18;101136.91;;;3.68;70.21
57859;BME280;49153;45.568;11.894;2023-01-27T04:16:44;101139.47;;;3.70;69.40
57859;BME280;49153;45.568;11.894;2023-01-27T04:19:10;101143.94;;;3.66;69.28
57859;BME280;49153;45.568;11.894;2023-01-27T04:21:36;101134.34;;;3.67;69.72
57859;BME280;49153;45.568;11.894;2023-01-27T04:24:02;101134.41;;;3.65;69.37
57859;BME280;49153;45.568;11.894;2023-01-27T04:26:28;101126.56;;;3.65;69.66
57859;BME280;49153;45.568;11.894;2023-01-27T04:28:58;101130.22;;;3.61;69.26
57859;BME280;49153;45.568;11.894;2023-01-27T04:31:24;101133.78;;;3.59;69.97
57859;BME280;49153;45.568;11.894;2023-01-27T04:33:49;101130.22;;;3.61;69.74
57859;BME280;49153;45.568;11.894;2023-01-27T04:36:15;101131.00;;;3.63;70.19
57859;BME280;49153;45.568;11.894;2023-01-27T04:38:40;101135.34;;;3.64;69.85
57859;BME280;49153;45.568;11.894;2023-01-27T04:41:06;101131.06;;;3.62;69.32
57859;BME280;49153;45.568;11.894;2023-01-27T04:43:31;101134.69;;;3.58;69.36
57859;BME280;49153;45.568;11.894;2023-01-27T04:45:57;101139.91;;;3.58;69.57
57859;BME280;49153;45.568;11.894;2023-01-27T04:48:22;101141.72;;;3.56;69.79
57859;BME280;49153;45.568;11.894;2023-01-27T04:50:48;101127.13;;;3.50;69.75
57859;BME280;49153;45.568;11.894;2023-01-27T04:53:13;101133.03;;;3.55;69.37
57859;BME280;49153;45.568;11.894;2023-01-27T04:55:40;101139.22;;;3.53;69.94
57859;BME280;49153;45.568;11.894;2023-01-27T04:58:07;101139.28;;;3.51;69.47
57859;BME280;49153;45.568;11.894;2023-01-27T05:00:32;101136.94;;;3.44;69.39
57859;BME280;49153;45.568;11.894;2023-01-27T05:02:57;101148.13;;;3.47;69.71
57859;BME280;49153;45.568;11.894;2023-01-27T05:05:23;101148.28;;;3.43;69.08
57859;BME280;49153;45.568;11.894;2023-01-27T05:07:49;101154.44;;;3.40;69.09
57859;BME280;49153;45.568;11.894;2023-01-27T05:10:14;101133.94;;;3.29;68.51
57859;BME280;49153;45.568;11.894;2023-01-27T05:12:39;101153.97;;;3.29;69.08
57859;BME280;49153;45.568;11.894;2023-01-27T05:15:05;101150.66;;;3.24;69.36
57859;BME280;49153;45.568;11.894;2023-01-27T05:17:31;101155.19;;;3.19;70.00
57859;BME280;49153;45.568;11.894;2023-01-27T05:19:57;101165.66;;;3.17;69.22
57859;BME280;49153;45.568;11.894;2023-01-27T05:22:22;101164.72;;;3.20;69.79
57859;BME280;49153;45.568;11.894;2023-01-27T05:24:48;101168.13;;;3.22;69.37
57859;BME280;49153;45.568;11.894;2023-01-27T05:27:13;101169.81;;;3.23;69.71
57859;BME280;49153;45.568;11.894;2023-01-27T05:29:39;101166.25;;;3.25;69.80
57859;BME280;49153;45.568;11.894;2023-01-27T05:32:04;101174.81;;;3.29;70.16
57859;BME280;49153;45.568;11.894;2023-01-27T05:34:30;101166.09;;;3.30;68.91
57859;BME280;49153;45.568;11.894;2023-01-27T05:36:55;101155.88;;;3.24;68.88
57859;BME280;49153;45.568;11.894;2023-01-27T05:39:20;101164.38;;;3.29;69.48
57859;BME280;49153;45.568;11.894;2023-01-27T05:41:46;101163.84;;;3.19;69.19
57859;BME280;49153;45.568;11.894;2023-01-27T05:44:11;101166.41;;;3.21;68.61
57859;BME280;49153;45.568;11.894;2023-01-27T05:46:38;101164.13;;;3.12;69.12
57859;BME280;49153;45.568;11.894;2023-01-27T05:49:05;101171.09;;;3.11;68.46
57859;BME280;49153;45.568;11.894;2023-01-27T05:51:35;101180.66;;;3.11;68.70
57859;BME280;49153;45.568;11.894;2023-01-27T05:54:02;101172.88;;;3.09;68.46
57859;BME280;49153;45.568;11.894;2023-01-27T05:56:28;101180.69;;;3.09;69.48
57859;BME280;49153;45.568;11.894;2023-01-27T05:58:54;101173.84;;;3.07;69.49
57859;BME280;49153;45.568;11.894;2023-01-27T06:01:23;101185.03;;;3.10;69.29
57859;BME280;49153;45.568;11.894;2023-01-27T06:03:49;101179.81;;;3.10;69.56
57859;BME280;49153;45.568;11.894;2023-01-27T06:06:16;101188.47;;;3.11;68.69
57859;BME280;49153;45.568;11.894;2023-01-27T06:08:42;101190.28;;;3.09;68.65
57859;BME280;49153;45.568;11.894;2023-01-27T06:11:08;101185.06;;;3.09;68.30
57859;BME280;49153;45.568;11.894;2023-01-27T06:13:34;101185.19;;;3.06;69.22
57859;BME280;49153;45.568;11.894;2023-01-27T06:16:04;101188.72;;;3.03;68.39
57859;BME280;49153;45.568;11.894;2023-01-27T06:18:30;101187.09;;;3.01;69.62
57859;BME280;49153;45.568;11.894;2023-01-27T06:20:57;101192.34;;;2.99;69.12
57859;BME280;49153;45.568;11.894;2023-01-27T06:23:23;101186.31;;;2.97;69.52
57859;BME280;49153;45.568;11.894;2023-01-27T06:25:48;101192.38;;;2.97;69.20
57859;BME280;49153;45.568;11.894;2023-01-27T06:28:14;101194.97;;;2.97;68.46
57859;BME280;49153;45.568;11.894;2023-01-27T06:30:40;101183.84;;;2.92;68.89
57859;BME280;49153;45.568;11.894;2023-01-27T06:33:06;101198.63;;;2.92;69.39
57859;BME280;49153;45.568;11.894;2023-01-27T06:35:33;101198.78;;;2.87;69.24
57859;BME280;49153;45.568;11.894;2023-01-27T06:38:01;101189.38;;;2.83;69.76
57859;BME280;49153;45.568;11.894;2023-01-27T06:40:28;101196.19;;;2.87;69.20
57859;BME280;49153;45.568;11.894;2023-01-27T06:42:55;101186.16;;;2.75;69.18
57859;BME280;49153;45.568;11.894;2023-01-27T06:45:20;101199.09;;;2.78;69.33
57859;BME280;49153;45.568;11.894;2023-01-27T06:47:56;101204.34;;;2.77;69.02
57859;BME280;49153;45.568;11.894;2023-01-27T06:50:22;101197.50;;;2.74;69.45
57859;BME280;49153;45.568;11.894;2023-01-27T06:52:48;101208.47;;;2.84;69.50
57859;BME280;49153;45.568;11.894;2023-01-27T06:55:14;101207.41;;;2.89;69.28
57859;BME280;49153;45.568;11.894;2023-01-27T06:57:39;101206.44;;;2.92;68.75
57859;BME280;49153;45.568;11.894;2023-01-27T07:00:07;101204.75;;;2.91;69.30
57859;BME280;49153;45.568;11.894;2023-01-27T07:02:32;101211.81;;;2.87;69.15
57859;BME280;49153;45.568;11.894;2023-01-27T07:04:57;101203.41;;;2.79;68.54
57859;BME280;49153;45.568;11.894;2023-01-27T07:07:23;101209.50;;;2.78;68.64
57859;BME280;49153;45.568;11.894;2023-01-27T07:09:48;101208.69;;;2.76;68.51
57859;BME280;49153;45.568;11.894;2023-01-27T07:12:14;101218.22;;;2.77;68.72
57859;BME280;49153;45.568;11.894;2023-01-27T07:14:39;101218.19;;;2.79;68.87
57859;BME280;49153;45.568;11.894;2023-01-27T07:17:04;101210.50;;;2.74;68.84
57859;BME280;49153;45.568;11.894;2023-01-27T07:19:30;101211.16;;;2.81;68.65
57859;BME280;49153;45.568;11.894;2023-01-27T07:21:55;101206.78;;;2.81;68.29
57859;BME280;49153;45.568;11.894;2023-01-27T07:24:20;101210.22;;;2.83;68.71
57859;BME280;49153;45.568;11.894;2023-01-27T07:26:46;101214.53;;;2.84;68.90
57859;BME280;49153;45.568;11.894;2023-01-27T07:29:12;101221.19;;;2.93;69.07
57859;BME280;49153;45.568;11.894;2023-01-27T07:31:38;101222.94;;;2.92;69.12
57859;BME280;49153;45.568;11.894;2023-01-27T07:34:03;101227.97;;;2.98;67.95
57859;BME280;49153;45.568;11.894;2023-01-27T07:36:28;101227.97;;;2.98;68.72
57859;BME280;49153;45.568;11.894;2023-01-27T07:38:54;101234.91;;;2.98;68.36
57859;BME280;49153;45.568;11.894;2023-01-27T07:41:20;101239.19;;;3.01;68.73
57859;BME280;49153;45.568;11.894;2023-01-27T07:43:47;101245.13;;;3.06;68.54
57859;BME280;49153;45.568;11.894;2023-01-27T07:46:12;101245.81;;;3.11;69.09
57859;BME280;49153;45.568;11.894;2023-01-27T07:48:38;101241.38;;;3.13;69.62
57859;BME280;49153;45.568;11.894;2023-01-27T07:51:03;101243.94;;;3.14;68.58
57859;BME280;49153;45.568;11.894;2023-01-27T07:53:29;101249.81;;;3.21;68.78
57859;BME280;49153;45.568;11.894;2023-01-27T07:55:54;101246.38;;;3.20;68.22
57859;BME280;49153;45.568;11.894;2023-01-27T07:58:19;101235.25;;;3.15;68.92
57859;BME280;49153;45.568;11.894;2023-01-27T08:00:45;101234.22;;;3.19;69.76
57859;BME280;49153;45.568;11.894;2023-01-27T08:03:24;101246.88;;;3.31;69.01
57859;BME280;49153;45.568;11.894;2023-01-27T08:05:51;101244.16;;;3.34;69.20
57859;BME280;49153;45.568;11.894;2023-01-27T08:08:16;101243.06;;;3.42;68.86
57859;BME280;49153;45.568;11.894;2023-01-27T08:10:43;101241.25;;;3.44;68.53
57859;BME280;49153;45.568;11.894;2023-01-27T08:13:13;101244.56;;;3.49;68.54
57859;BME280;49153;45.568;11.894;2023-01-27T08:15:39;101245.84;;;3.62;68.26
57859;BME280;49153;45.568;11.894;2023-01-27T08:18:05;101233.47;;;3.67;68.31
57859;BME280;49153;45.568;11.894;2023-01-27T08:20:31;101246.06;;;3.80;68.57
57859;BME280;49153;45.568;11.894;2023-01-27T08:22:56;101244.81;;;3.91;67.53
57859;BME280;49153;45.568;11.894;2023-01-27T08:25:22;101247.06;;;4.01;67.68
57859;BME280;49153;45.568;11.894;2023-01-27T08:27:49;101247.63;;;4.09;67.31
57859;BME280;49153;45.568;11.894;2023-01-27T08:30:15;101249.72;;;4.23;66.95
57859;BME280;49153;45.568;11.894;2023-01-27T08:32:40;101252.69;;;4.37;66.69
57859;BME280;49153;45.568;11.894;2023-01-27T08:35:06;101241.88;;;4.46;65.06
57859;BME280;49153;45.568;11.894;2023-01-27T08:37:31;101249.25;;;4.58;65.82
57859;BME280;49153;45.568;11.894;2023-01-27T08:39:56;101251.66;;;4.64;64.94
57859;BME280;49153;45.568;11.894;2023-01-27T08:42:22;101242.66;;;4.72;64.65
57859;BME280;49153;45.568;11.894;2023-01-27T08:44:47;101255.28;;;4.82;64.52
57859;BME280;49153;45.568;11.894;2023-01-27T08:47:13;101254.97;;;4.91;64.58
57859;BME280;49153;45.568;11.894;2023-01-27T08:49:38;101259.09;;;4.97;62.23
57859;BME280;49153;45.568;11.894;2023-01-27T08:52:04;101264.97;;;5.02;62.71
57859;BME280;49153;45.568;11.894;2023-01-27T08:54:29;101258.03;;;5.01;61.99
57859;BME280;49153;45.568;11.894;2023-01-27T08:56:54;101267.47;;;5.05;59.66
57859;BME280;49153;45.568;11.894;2023-01-27T08:59:20;101255.53;;;4.98;60.50
57859;BME280;49153;45.568;11.894;2023-01-27T09:01:45;101271.47;;;5.14;60.24
57859;BME280;49153;45.568;11.894;2023-01-27T09:04:11;101262.53;;;5.19;60.35
57859;BME280;49153;45.568;11.894;2023-01-27T09:06:36;101264.13;;;5.23;58.38
57859;BME280;49153;45.568;11.894;2023-01-27T09:09:01;101268.16;;;5.30;60.39
57859;BME280;49153;45.568;11.894;2023-01-27T09:11:33;101268.06;;;5.33;56.09
57859;BME280;49153;45.568;11.894;2023-01-27T09:13:58;101269.81;;;5.33;57.81
57859;BME280;49153;45.568;11.894;2023-01-27T09:16:23;101267.06;;;5.36;57.60
57859;BME280;49153;45.568;11.894;2023-01-27T09:18:49;101273.81;;;5.41;58.54
57859;BME280;49153;45.568;11.894;2023-01-27T09:21:14;101265.72;;;5.47;56.75
57859;BME280;49153;45.568;11.894;2023-01-27T09:23:39;101270.69;;;5.53;57.16
57859;BME280;49153;45.568;11.894;2023-01-27T09:26:05;101278.41;;;5.57;56.33
57859;BME280;49153;45.568;11.894;2023-01-27T09:28:30;101271.34;;;5.59;54.37
57859;BME280;49153;45.568;11.894;2023-01-27T09:30:57;101271.22;;;5.62;55.31
57859;BME280;49153;45.568;11.894;2023-01-27T09:33:22;101273.97;;;5.59;54.35
57859;BME280;49153;45.568;11.894;2023-01-27T09:36:00;101273.63;;;5.66;55.14
57859;BME280;49153;45.568;11.894;2023-01-27T09:38:28;101280.28;;;5.75;56.00
57859;BME280;49153;45.568;11.894;2023-01-27T09:49:21;101277.88;;;5.90;53.54
57859;BME280;49153;45.568;11.894;2023-01-27T09:57:29;101273.47;;;6.11;55.36
57859;BME280;49153;45.568;11.894;2023-01-27T10:14:17;101263.44;;;6.21;50.56
57859;BME280;49153;45.568;11.894;2023-01-27T10:17:04;101259.75;;;6.25;51.71
57859;BME280;49153;45.568;11.894;2023-01-27T10:28:12;101254.53;;;6.44;50.65
57859;BME280;49153;45.568;11.894;2023-01-27T10:31:06;101257.66;;;6.52;51.78
57859;BME280;49153;45.568;11.894;2023-01-27T10:33:41;101258.91;;;6.62;51.05
57859;BME280;49153;45.568;11.894;2023-01-27T10:39:22;101252.53;;;6.67;49.46
57859;BME280;49153;45.568;11.894;2023-01-27T10:42:05;101252.25;;;6.73;50.03
57859;BME280;49153;45.568;11.894;2023-01-27T10:44:59;101240.63;;;6.79;50.16
57859;BME280;49153;45.568;11.894;2023-01-27T10:50:08;101247.94;;;6.91;49.18
57859;BME280;49153;45.568;11.894;2023-01-27T10:52:45;101246.16;;;6.92;49.19
57859;BME280;49153;45.568;11.894;2023-01-27T10:55:19;101244.22;;;6.95;47.91
57859;BME280;49153;45.568;11.894;2023-01-27T11:00:17;101248.56;;;6.96;48.39
57859;BME280;49153;45.568;11.894;2023-01-27T11:02:56;101241.31;;;7.01;46.84
57859;BME280;49153;45.568;11.894;2023-01-27T11:05:33;101225.72;;;6.98;46.78
57859;BME280;49153;45.568;11.894;2023-01-27T11:08:14;101231.97;;;6.96;47.85
57859;BME280;49153;45.568;11.894;2023-01-27T11:10:44;101233.16;;;7.07;49.40
57859;BME280;49153;45.568;11.894;2023-01-27T11:13:32;101235.41;;;7.32;49.81
57859;BME280;49153;45.568;11.894;2023-01-27T11:15:59;101226.78;;;7.47;48.90
57859;BME280;49153;45.568;11.894;2023-01-27T11:18:31;101231.28;;;7.45;47.38
57859;BME280;49153;45.568;11.894;2023-01-27T11:21:02;101229.81;;;7.40;48.20
57859;BME280;49153;45.568;11.894;2023-01-27T11:23:35;101225.53;;;7.37;47.83
57859;BME280;49153;45.568;11.894;2023-01-27T11:26:16;101230.31;;;7.46;48.19
57859;BME280;49153;45.568;11.894;2023-01-27T11:34:17;101215.97;;;7.71;48.46
57859;BME280;49153;45.568;11.894;2023-01-27T11:36:46;101210.41;;;7.77;47.83
57859;BME280;49153;45.568;11.894;2023-01-27T11:39:13;101205.16;;;7.77;46.78
57859;BME280;49153;45.568;11.894;2023-01-27T11:41:45;101207.84;;;7.75;46.56
57859;BME280;49153;45.568;11.894;2023-01-27T11:44:17;101199.97;;;7.75;46.84
57859;BME280;49153;45.568;11.894;2023-01-27T11:46:44;101192.69;;;7.80;47.05
57859;BME280;49153;45.568;11.894;2023-01-27T11:49:24;101189.25;;;7.95;46.41
57859;BME280;49153;45.568;11.894;2023-01-27T11:51:50;101200.09;;;7.89;46.54
57859;BME280;49153;45.568;11.894;2023-01-27T11:54:22;101190.78;;;7.99;47.34
57859;BME280;49153;45.568;11.894;2023-01-27T11:56:50;101191.56;;;8.01;46.69
57859;BME280;49153;45.568;11.894;2023-01-27T11:59:36;101180.13;;;8.02;46.73
57859;BME280;49153;45.568;11.894;2023-01-27T12:02:31;101183.09;;;7.96;44.56
57859;BME280;49153;45.568;11.894;2023-01-27T12:05:08;101165.94;;;7.89;45.74
57859;BME280;49153;45.568;11.894;2023-01-27T12:07:48;101176.59;;;8.03;46.09
57859;BME280;49153;45.568;11.894;2023-01-27T12:10:45;101166.75;;;8.23;46.20
57859;BME280;49153;45.568;11.894;2023-01-27T12:13:16;101168.63;;;8.21;45.76
57859;BME280;49153;45.568;11.894;2023-01-27T12:15:54;101157.50;;;8.16;45.55
57859;BME280;49153;45.568;11.894;2023-01-27T12:18:20;101165.44;;;8.31;46.88
57859;BME280;49153;45.568;11.894;2023-01-27T12:21:07;101146.69;;;8.37;45.91
57859;BME280;49153;45.568;11.894;2023-01-27T12:23:46;101150.44;;;8.33;44.65
57859;BME280;49153;45.568;11.894;2023-01-27T12:26:13;101153.44;;;8.26;44.26
57859;BME280;49153;45.568;11.894;2023-01-27T12:31:30;101135.66;;;8.46;44.08
57859;BME280;49153;45.568;11.894;2023-01-27T12:34:01;101140.34;;;8.41;44.85
57859;BME280;49153;45.568;11.894;2023-01-27T12:36:27;101122.03;;;8.40;45.71
57859;BME280;49153;45.568;11.894;2023-01-27T12:38:56;101125.59;;;8.55;46.02
57859;BME280;49153;45.568;11.894;2023-01-27T12:41:26;101128.00;;;8.73;46.25
57859;BME280;49153;45.568;11.894;2023-01-27T12:44:15;101101.34;;;8.79;46.75
57859;BME280;49153;45.568;11.894;2023-01-27T12:46:57;101122.91;;;8.86;44.14
57859;BME280;49153;45.568;11.894;2023-01-27T12:49:33;101119.59;;;8.82;43.72
57859;BME280;49153;45.568;11.894;2023-01-27T12:52:02;101114.78;;;8.75;44.24
57859;BME280;49153;45.568;11.894;2023-01-27T12:54:30;101119.41;;;8.85;46.17
57859;BME280;49153;45.568;11.894;2023-01-27T12:57:01;101113.44;;;8.98;45.58
57859;BME280;49153;45.568;11.894;2023-01-27T12:59:27;101101.25;;;9.11;44.82
57859;BME280;49153;45.568;11.894;2023-01-27T13:01:58;101096.63;;;9.00;43.23
57859;BME280;49153;45.568;11.894;2023-01-27T13:04:24;101102.00;;;9.13;45.21
57859;BME280;49153;45.568;11.894;2023-01-27T13:07:10;101102.44;;;9.35;43.98
57859;BME280;49153;45.568;11.894;2023-01-27T13:09:55;101101.88;;;9.44;45.65
57859;BME280;49153;45.568;11.894;2023-01-27T13:12:26;101110.13;;;9.52;44.10
57859;BME280;49153;45.568;11.894;2023-01-27T13:15:24;101099.44;;;9.55;42.94
57859;BME280;49153;45.568;11.894;2023-01-27T13:17:55;101091.34;;;9.44;43.24
57859;BME280;49153;45.568;11.894;2023-01-27T13:23:09;101106.84;;;9.35;41.44
57859;BME280;49153;45.568;11.894;2023-01-27T13:26:17;101100.97;;;9.15;42.27
57859;BME280;49153;45.568;11.894;2023-01-27T13:42:57;101077.19;;;9.17;44.44
57859;BME280;49153;45.568;11.894;2023-01-27T13:45:37;101085.50;;;9.25;44.24
57859;BME280;49153;45.568;11.894;2023-01-27T13:48:19;101097.53;;;9.29;43.90
57859;BME280;49153;45.568;11.894;2023-01-27T13:50:50;101095.63;;;9.31;43.91
57859;BME280;49153;45.568;11.894;2023-01-27T13:53:19;101098.31;;;9.45;43.85
57859;BME280;49153;45.568;11.894;2023-01-27T13:58:29;101096.19;;;9.22;42.66
57859;BME280;49153;45.568;11.894;2023-01-27T14:01:05;101095.59;;;9.03;43.29
57859;BME280;49153;45.568;11.894;2023-01-27T14:03:55;101104.47;;;8.86;44.18
57859;BME280;49153;45.568;11.894;2023-01-27T14:09:03;101108.66;;;9.04;44.36
57859;BME280;49153;45.568;11.894;2023-01-27T14:11:54;101101.66;;;9.19;44.45
57859;BME280;49153;45.568;11.894;2023-01-27T14:17:36;101106.84;;;9.35;43.36
57859;BME280;49153;45.568;11.894;2023-01-27T14:25:48;101103.53;;;9.31;43.47
57859;BME280;49153;45.568;11.894;2023-01-27T14:28:26;101109.44;;;9.20;42.25
57859;BME280;49153;45.568;11.894;2023-01-27T14:30:57;101115.44;;;9.08;43.66
57859;BME280;49153;45.568;11.894;2023-01-27T14:36:38;101114.59;;;9.08;43.13
57859;BME280;49153;45.568;11.894;2023-01-27T14:39:24;101123.00;;;9.14;42.62